sensor_id;sensor_type;location;lat;lon;timestamp;P1;durP1;ratioP1;P2;durP2;ratioP2
84709;SDS011;75589;42.648;23.274;2024-03-17T00:02:27;20.17;;;9.75;;
84709;SDS011;75589;42.648;23.274;2024-03-17T00:05:55;18.35;;;9.88;;
84709;SDS011;75589;42.648;23.274;2024-03-17T00:09:19;17.67;;;8.18;;
84709;SDS011;75589;42.648;23.274;2024-03-17T00:12:44;19.10;;;8.57;;
84709;SDS011;75589;42.648;23.274;2024-03-17T00:16:08;21.05;;;10.93;;
84709;SDS011;75589;42.648;23.274;2024-03-17T00:19:33;19.10;;;8.65;;
84709;SDS011;75589;42.648;23.274;2024-03-17T00:22:58;22.70;;;9.52;;
84709;SDS011;75589;42.648;23.274;2024-03-17T00:26:22;22.05;;;10.20;;
84709;SDS011;75589;42.648;23.274;2024-03-17T00:29:46;23.75;;;9.82;;
84709;SDS011;75589;42.648;23.274;2024-03-17T00:33:11;21.38;;;10.10;;
84709;SDS011;75589;42.648;23.274;2024-03-17T00:36:35;26.20;;;9.75;;
84709;SDS011;75589;42.648;23.274;2024-03-17T00:40:02;22.08;;;9.90;;
84709;SDS011;75589;42.648;23.274;2024-03-17T00:43:29;18.70;;;9.63;;
84709;SDS011;75589;42.648;23.274;2024-03-17T00:46:53;19.85;;;10.20;;
84709;SDS011;75589;42.648;23.274;2024-03-17T00:50:17;20.90;;;10.25;;
84709;SDS011;75589;42.648;23.274;2024-03-17T00:53:41;20.33;;;10.32;;
84709;SDS011;75589;42.648;23.274;2024-03-17T00:57:05;20.65;;;8.77;;
84709;SDS011;75589;42.648;23.274;2024-03-17T01:00:30;19.27;;;9.07;;
84709;SDS011;75589;42.648;23.274;2024-03-17T01:03:54;23.48;;;8.82;;
84709;SDS011;75589;42.648;23.274;2024-03-17T01:07:18;20.50;;;8.95;;
84709;SDS011;75589;42.648;23.274;2024-03-17T01:10:43;22.02;;;10.43;;
84709;SDS011;75589;42.648;23.274;2024-03-17T01:14:07;19.23;;;9.55;;
84709;SDS011;75589;42.648;23.274;2024-03-17T01:17:31;16.92;;;8.60;;
84709;SDS011;75589;42.648;23.274;2024-03-17T01:20:55;21.15;;;9.95;;
84709;SDS011;75589;42.648;23.274;2024-03-17T01:24:19;21.63;;;8.32;;
84709;SDS011;75589;42.648;23.274;2024-03-17T01:27:44;19.23;;;9.57;;
84709;SDS011;75589;42.648;23.274;2024-03-17T01:31:08;17.75;;;8.13;;
84709;SDS011;75589;42.648;23.274;2024-03-17T01:34:32;22.45;;;9.32;;
84709;SDS011;75589;42.648;23.274;2024-03-17T01:37:56;23.63;;;9.35;;
84709;SDS011;75589;42.648;23.274;2024-03-17T01:41:20;20.90;;;9.05;;
84709;SDS011;75589;42.648;23.274;2024-03-17T01:44:44;15.25;;;8.45;;
84709;SDS011;75589;42.648;23.274;2024-03-17T01:48:11;23.92;;;8.73;;
84709;SDS011;75589;42.648;23.274;2024-03-17T01:51:36;21.45;;;9.57;;
84709;SDS011;75589;42.648;23.274;2024-03-17T01:55:02;21.33;;;9.18;;
84709;SDS011;75589;42.648;23.274;2024-03-17T01:58:27;19.98;;;9.55;;
84709;SDS011;75589;42.648;23.274;2024-03-17T02:01:53;21.77;;;9.27;;
84709;SDS011;75589;42.648;23.274;2024-03-17T02:05:17;21.75;;;8.05;;
84709;SDS011;75589;42.648;23.274;2024-03-17T02:08:48;23.92;;;8.75;;
84709;SDS011;75589;42.648;23.274;2024-03-17T02:12:12;16.02;;;7.90;;
84709;SDS011;75589;42.648;23.274;2024-03-17T02:15:37;18.45;;;9.68;;
84709;SDS011;75589;42.648;23.274;2024-03-17T02:19:01;16.95;;;7.43;;
84709;SDS011;75589;42.648;23.274;2024-03-17T02:22:25;20.58;;;7.93;;
84709;SDS011;75589;42.648;23.274;2024-03-17T02:25:51;22.65;;;10.82;;
84709;SDS011;75589;42.648;23.274;2024-03-17T02:29:15;22.67;;;9.43;;
84709;SDS011;75589;42.648;23.274;2024-03-17T02:32:39;23.83;;;10.23;;
84709;SDS011;75589;42.648;23.274;2024-03-17T02:36:04;22.42;;;9.02;;
84709;SDS011;75589;42.648;23.274;2024-03-17T02:39:29;18.60;;;7.70;;
84709;SDS011;75589;42.648;23.274;2024-03-17T02:42:54;17.13;;;7.78;;
84709;SDS011;75589;42.648;23.274;2024-03-17T02:46:18;18.30;;;8.13;;
84709;SDS011;75589;42.648;23.274;2024-03-17T02:49:42;17.85;;;8.57;;
84709;SDS011;75589;42.648;23.274;2024-03-17T02:53:06;19.77;;;8.77;;
84709;SDS011;75589;42.648;23.274;2024-03-17T02:56:31;23.00;;;10.05;;
84709;SDS011;75589;42.648;23.274;2024-03-17T02:59:56;14.27;;;7.38;;
84709;SDS011;75589;42.648;23.274;2024-03-17T03:03:19;15.25;;;7.32;;
84709;SDS011;75589;42.648;23.274;2024-03-17T03:06:44;20.98;;;8.38;;
84709;SDS011;75589;42.648;23.274;2024-03-17T03:10:08;20.27;;;9.02;;
84709;SDS011;75589;42.648;23.274;2024-03-17T03:13:37;19.00;;;7.50;;
84709;SDS011;75589;42.648;23.274;2024-03-17T03:17:01;14.88;;;6.50;;
84709;SDS011;75589;42.648;23.274;2024-03-17T03:20:26;12.77;;;6.50;;
84709;SDS011;75589;42.648;23.274;2024-03-17T03:23:50;15.27;;;7.68;;
84709;SDS011;75589;42.648;23.274;2024-03-17T03:27:17;18.17;;;7.68;;
84709;SDS011;75589;42.648;23.274;2024-03-17T03:30:40;15.60;;;7.85;;
84709;SDS011;75589;42.648;23.274;2024-03-17T03:34:05;15.95;;;7.80;;
84709;SDS011;75589;42.648;23.274;2024-03-17T03:37:30;16.58;;;8.57;;
84709;SDS011;75589;42.648;23.274;2024-03-17T03:40:54;15.27;;;7.30;;
84709;SDS011;75589;42.648;23.274;2024-03-17T03:44:20;24.23;;;8.07;;
84709;SDS011;75589;42.648;23.274;2024-03-17T03:47:45;16.08;;;6.03;;
84709;SDS011;75589;42.648;23.274;2024-03-17T03:51:09;16.95;;;7.20;;
84709;SDS011;75589;42.648;23.274;2024-03-17T03:54:34;13.57;;;7.32;;
84709;SDS011;75589;42.648;23.274;2024-03-17T03:57:58;17.50;;;6.88;;
84709;SDS011;75589;42.648;23.274;2024-03-17T04:01:22;17.63;;;8.25;;
84709;SDS011;75589;42.648;23.274;2024-03-17T04:04:46;22.40;;;8.25;;
84709;SDS011;75589;42.648;23.274;2024-03-17T04:08:10;16.60;;;8.68;;
84709;SDS011;75589;42.648;23.274;2024-03-17T04:11:35;16.27;;;8.05;;
84709;SDS011;75589;42.648;23.274;2024-03-17T04:14:59;11.80;;;7.10;;
84709;SDS011;75589;42.648;23.274;2024-03-17T04:18:24;21.23;;;8.07;;
84709;SDS011;75589;42.648;23.274;2024-03-17T04:21:48;71.93;;;23.80;;
84709;SDS011;75589;42.648;23.274;2024-03-17T04:25:13;23.08;;;8.15;;
84709;SDS011;75589;42.648;23.274;2024-03-17T04:28:38;20.20;;;8.13;;
84709;SDS011;75589;42.648;23.274;2024-03-17T04:32:02;16.77;;;7.45;;
84709;SDS011;75589;42.648;23.274;2024-03-17T04:35:27;19.80;;;7.60;;
84709;SDS011;75589;42.648;23.274;2024-03-17T04:38:52;20.63;;;7.68;;
84709;SDS011;75589;42.648;23.274;2024-03-17T04:42:17;13.93;;;7.53;;
84709;SDS011;75589;42.648;23.274;2024-03-17T04:45:41;13.77;;;8.75;;
84709;SDS011;75589;42.648;23.274;2024-03-17T04:49:05;14.38;;;9.30;;
84709;SDS011;75589;42.648;23.274;2024-03-17T04:52:29;18.13;;;8.55;;
84709;SDS011;75589;42.648;23.274;2024-03-17T04:55:58;14.10;;;7.57;;
84709;SDS011;75589;42.648;23.274;2024-03-17T04:59:22;18.35;;;8.32;;
84709;SDS011;75589;42.648;23.274;2024-03-17T05:02:46;24.45;;;9.88;;
84709;SDS011;75589;42.648;23.274;2024-03-17T05:06:10;21.75;;;9.15;;
84709;SDS011;75589;42.648;23.274;2024-03-17T05:09:35;19.80;;;7.53;;
84709;SDS011;75589;42.648;23.274;2024-03-17T05:12:59;21.80;;;9.40;;
84709;SDS011;75589;42.648;23.274;2024-03-17T05:16:23;17.75;;;8.73;;
84709;SDS011;75589;42.648;23.274;2024-03-17T05:19:47;23.33;;;9.15;;
84709;SDS011;75589;42.648;23.274;2024-03-17T05:23:14;19.98;;;8.00;;
84709;SDS011;75589;42.648;23.274;2024-03-17T05:26:38;19.83;;;10.13;;
84709;SDS011;75589;42.648;23.274;2024-03-17T05:30:02;17.88;;;8.20;;
84709;SDS011;75589;42.648;23.274;2024-03-17T05:33:26;21.48;;;9.27;;
84709;SDS011;75589;42.648;23.274;2024-03-17T05:36:51;18.40;;;10.23;;
84709;SDS011;75589;42.648;23.274;2024-03-17T05:40:15;18.52;;;8.10;;
84709;SDS011;75589;42.648;23.274;2024-03-17T05:43:39;16.52;;;8.15;;
84709;SDS011;75589;42.648;23.274;2024-03-17T05:47:15;18.50;;;8.82;;
84709;SDS011;75589;42.648;23.274;2024-03-17T05:50:39;17.02;;;9.27;;
84709;SDS011;75589;42.648;23.274;2024-03-17T05:54:03;18.50;;;8.23;;
84709;SDS011;75589;42.648;23.274;2024-03-17T05:57:27;18.05;;;7.57;;
84709;SDS011;75589;42.648;23.274;2024-03-17T06:00:51;18.02;;;8.15;;
84709;SDS011;75589;42.648;23.274;2024-03-17T06:04:15;17.25;;;9.05;;
84709;SDS011;75589;42.648;23.274;2024-03-17T06:07:40;16.73;;;8.93;;
84709;SDS011;75589;42.648;23.274;2024-03-17T06:11:04;19.95;;;9.38;;
84709;SDS011;75589;42.648;23.274;2024-03-17T06:14:28;13.38;;;6.95;;
84709;SDS011;75589;42.648;23.274;2024-03-17T06:17:53;11.88;;;7.53;;
84709;SDS011;75589;42.648;23.274;2024-03-17T06:21:17;19.20;;;8.68;;
84709;SDS011;75589;42.648;23.274;2024-03-17T06:24:41;15.25;;;6.90;;
84709;SDS011;75589;42.648;23.274;2024-03-17T06:28:07;21.52;;;9.15;;
84709;SDS011;75589;42.648;23.274;2024-03-17T06:31:31;14.63;;;6.88;;
84709;SDS011;75589;42.648;23.274;2024-03-17T06:35:01;19.77;;;8.35;;
84709;SDS011;75589;42.648;23.274;2024-03-17T06:38:29;10.02;;;6.18;;
84709;SDS011;75589;42.648;23.274;2024-03-17T06:41:53;9.07;;;5.82;;
84709;SDS011;75589;42.648;23.274;2024-03-17T06:45:19;14.80;;;7.20;;
84709;SDS011;75589;42.648;23.274;2024-03-17T06:48:43;11.38;;;6.45;;
84709;SDS011;75589;42.648;23.274;2024-03-17T06:52:08;16.88;;;6.78;;
84709;SDS011;75589;42.648;23.274;2024-03-17T06:55:34;14.65;;;7.00;;
84709;SDS011;75589;42.648;23.274;2024-03-17T06:58:58;15.82;;;7.38;;
84709;SDS011;75589;42.648;23.274;2024-03-17T07:02:22;13.40;;;5.47;;
84709;SDS011;75589;42.648;23.274;2024-03-17T07:05:55;11.43;;;7.25;;
84709;SDS011;75589;42.648;23.274;2024-03-17T07:09:19;16.92;;;6.35;;
84709;SDS011;75589;42.648;23.274;2024-03-17T07:12:43;15.02;;;7.63;;
84709;SDS011;75589;42.648;23.274;2024-03-17T07:16:08;17.65;;;7.13;;
84709;SDS011;75589;42.648;23.274;2024-03-17T07:19:32;17.65;;;7.65;;
84709;SDS011;75589;42.648;23.274;2024-03-17T07:22:57;15.98;;;7.68;;
84709;SDS011;75589;42.648;23.274;2024-03-17T07:26:24;15.98;;;7.68;;
84709;SDS011;75589;42.648;23.274;2024-03-17T07:29:48;13.75;;;7.07;;
84709;SDS011;75589;42.648;23.274;2024-03-17T07:33:16;15.63;;;7.90;;
84709;SDS011;75589;42.648;23.274;2024-03-17T07:36:40;16.73;;;8.40;;
84709;SDS011;75589;42.648;23.274;2024-03-17T07:40:05;14.23;;;6.97;;
84709;SDS011;75589;42.648;23.274;2024-03-17T07:43:30;17.65;;;8.07;;
84709;SDS011;75589;42.648;23.274;2024-03-17T07:47:01;19.55;;;9.23;;
84709;SDS011;75589;42.648;23.274;2024-03-17T07:50:25;26.20;;;8.77;;
84709;SDS011;75589;42.648;23.274;2024-03-17T07:53:50;17.83;;;9.20;;
84709;SDS011;75589;42.648;23.274;2024-03-17T07:57:14;18.00;;;8.48;;
84709;SDS011;75589;42.648;23.274;2024-03-17T08:00:38;21.10;;;12.07;;
84709;SDS011;75589;42.648;23.274;2024-03-17T08:04:02;22.63;;;11.57;;
84709;SDS011;75589;42.648;23.274;2024-03-17T08:07:26;19.98;;;9.85;;
84709;SDS011;75589;42.648;23.274;2024-03-17T08:10:50;21.02;;;11.30;;
84709;SDS011;75589;42.648;23.274;2024-03-17T08:14:14;20.75;;;10.13;;
84709;SDS011;75589;42.648;23.274;2024-03-17T08:17:39;22.30;;;10.98;;
84709;SDS011;75589;42.648;23.274;2024-03-17T08:21:04;22.88;;;10.05;;
84709;SDS011;75589;42.648;23.274;2024-03-17T08:24:28;21.92;;;11.77;;
84709;SDS011;75589;42.648;23.274;2024-03-17T08:27:52;21.42;;;9.57;;
84709;SDS011;75589;42.648;23.274;2024-03-17T08:31:17;17.00;;;10.23;;
84709;SDS011;75589;42.648;23.274;2024-03-17T08:34:45;21.88;;;11.38;;
84709;SDS011;75589;42.648;23.274;2024-03-17T08:38:22;19.50;;;11.45;;
84709;SDS011;75589;42.648;23.274;2024-03-17T08:41:46;25.00;;;11.75;;
84709;SDS011;75589;42.648;23.274;2024-03-17T08:45:10;24.10;;;11.73;;
84709;SDS011;75589;42.648;23.274;2024-03-17T08:48:37;18.58;;;9.68;;
84709;SDS011;75589;42.648;23.274;2024-03-17T08:52:02;22.52;;;10.02;;
84709;SDS011;75589;42.648;23.274;2024-03-17T08:55:26;20.65;;;9.55;;
84709;SDS011;75589;42.648;23.274;2024-03-17T08:58:50;22.60;;;10.18;;
84709;SDS011;75589;42.648;23.274;2024-03-17T09:02:14;23.08;;;10.63;;
84709;SDS011;75589;42.648;23.274;2024-03-17T09:05:39;15.27;;;8.65;;
84709;SDS011;75589;42.648;23.274;2024-03-17T09:09:04;13.88;;;7.30;;
84709;SDS011;75589;42.648;23.274;2024-03-17T09:12:29;9.57;;;5.57;;
84709;SDS011;75589;42.648;23.274;2024-03-17T09:15:57;7.80;;;5.03;;
84709;SDS011;75589;42.648;23.274;2024-03-17T09:19:23;15.77;;;6.38;;
84709;SDS011;75589;42.648;23.274;2024-03-17T09:22:47;10.45;;;5.68;;
84709;SDS011;75589;42.648;23.274;2024-03-17T09:26:11;14.10;;;7.43;;
84709;SDS011;75589;42.648;23.274;2024-03-17T09:29:36;9.68;;;5.30;;
84709;SDS011;75589;42.648;23.274;2024-03-17T09:33:00;10.50;;;6.70;;
84709;SDS011;75589;42.648;23.274;2024-03-17T09:36:24;11.18;;;6.03;;
84709;SDS011;75589;42.648;23.274;2024-03-17T09:39:48;9.23;;;6.25;;
84709;SDS011;75589;42.648;23.274;2024-03-17T09:43:14;11.23;;;6.22;;
84709;SDS011;75589;42.648;23.274;2024-03-17T09:46:39;7.82;;;5.18;;
84709;SDS011;75589;42.648;23.274;2024-03-17T09:50:04;5.78;;;4.28;;
84709;SDS011;75589;42.648;23.274;2024-03-17T09:53:33;9.35;;;4.63;;
84709;SDS011;75589;42.648;23.274;2024-03-17T09:56:58;7.22;;;3.45;;
84709;SDS011;75589;42.648;23.274;2024-03-17T10:00:22;3.67;;;2.65;;
84709;SDS011;75589;42.648;23.274;2024-03-17T10:03:48;3.28;;;2.58;;
84709;SDS011;75589;42.648;23.274;2024-03-17T10:07:12;2.47;;;1.20;;
84709;SDS011;75589;42.648;23.274;2024-03-17T10:10:46;3.45;;;1.83;;
84709;SDS011;75589;42.648;23.274;2024-03-17T10:14:17;4.68;;;2.28;;
84709;SDS011;75589;42.648;23.274;2024-03-17T10:17:41;3.72;;;2.35;;
84709;SDS011;75589;42.648;23.274;2024-03-17T10:21:05;2.15;;;1.90;;
84709;SDS011;75589;42.648;23.274;2024-03-17T10:24:48;3.08;;;2.13;;
84709;SDS011;75589;42.648;23.274;2024-03-17T10:28:22;2.67;;;2.42;;
84709;SDS011;75589;42.648;23.274;2024-03-17T10:31:49;3.78;;;2.90;;
84709;SDS011;75589;42.648;23.274;2024-03-17T10:35:30;2.63;;;2.38;;
84709;SDS011;75589;42.648;23.274;2024-03-17T10:38:54;4.65;;;2.88;;
84709;SDS011;75589;42.648;23.274;2024-03-17T10:42:24;3.47;;;3.17;;
84709;SDS011;75589;42.648;23.274;2024-03-17T10:45:52;2.85;;;2.63;;
84709;SDS011;75589;42.648;23.274;2024-03-17T10:49:19;3.85;;;2.97;;
84709;SDS011;75589;42.648;23.274;2024-03-17T10:52:47;3.53;;;1.50;;
84709;SDS011;75589;42.648;23.274;2024-03-17T10:56:12;8.43;;;1.83;;
84709;SDS011;75589;42.648;23.274;2024-03-17T10:59:56;3.33;;;2.72;;
84709;SDS011;75589;42.648;23.274;2024-03-17T11:03:21;3.05;;;2.72;;
84709;SDS011;75589;42.648;23.274;2024-03-17T11:06:46;4.78;;;2.97;;
84709;SDS011;75589;42.648;23.274;2024-03-17T11:10:54;3.65;;;2.63;;
84709;SDS011;75589;42.648;23.274;2024-03-17T11:14:16;4.45;;;3.03;;
84709;SDS011;75589;42.648;23.274;2024-03-17T11:17:47;4.90;;;3.75;;
84709;SDS011;75589;42.648;23.274;2024-03-17T11:28:51;3.42;;;2.78;;
84709;SDS011;75589;42.648;23.274;2024-03-17T11:32:26;5.22;;;3.40;;
84709;SDS011;75589;42.648;23.274;2024-03-17T11:39:59;3.15;;;2.85;;
84709;SDS011;75589;42.648;23.274;2024-03-17T11:43:42;3.08;;;2.30;;
84709;SDS011;75589;42.648;23.274;2024-03-17T11:47:22;2.42;;;1.58;;
84709;SDS011;75589;42.648;23.274;2024-03-17T11:50:46;2.25;;;2.05;;
84709;SDS011;75589;42.648;23.274;2024-03-17T11:54:13;2.85;;;2.08;;
84709;SDS011;75589;42.648;23.274;2024-03-17T11:57:42;2.80;;;1.80;;
84709;SDS011;75589;42.648;23.274;2024-03-17T12:01:08;2.42;;;2.10;;
84709;SDS011;75589;42.648;23.274;2024-03-17T12:04:41;3.45;;;2.83;;
84709;SDS011;75589;42.648;23.274;2024-03-17T12:12:04;3.92;;;2.50;;
84709;SDS011;75589;42.648;23.274;2024-03-17T12:15:29;3.45;;;2.80;;
84709;SDS011;75589;42.648;23.274;2024-03-17T12:18:53;2.03;;;1.80;;
84709;SDS011;75589;42.648;23.274;2024-03-17T12:22:18;4.53;;;2.70;;
84709;SDS011;75589;42.648;23.274;2024-03-17T12:25:46;1.83;;;1.73;;
84709;SDS011;75589;42.648;23.274;2024-03-17T12:32:48;2.90;;;2.33;;
84709;SDS011;75589;42.648;23.274;2024-03-17T12:36:13;5.00;;;2.80;;
84709;SDS011;75589;42.648;23.274;2024-03-17T12:39:44;3.28;;;2.40;;
84709;SDS011;75589;42.648;23.274;2024-03-17T12:43:08;2.40;;;1.90;;
84709;SDS011;75589;42.648;23.274;2024-03-17T12:46:48;4.95;;;3.20;;
84709;SDS011;75589;42.648;23.274;2024-03-17T12:50:13;4.22;;;1.55;;
84709;SDS011;75589;42.648;23.274;2024-03-17T12:53:40;3.72;;;2.83;;
84709;SDS011;75589;42.648;23.274;2024-03-17T12:57:07;7.13;;;3.45;;
84709;SDS011;75589;42.648;23.274;2024-03-17T13:01:02;2.40;;;1.60;;
84709;SDS011;75589;42.648;23.274;2024-03-17T13:04:26;4.22;;;2.90;;
84709;SDS011;75589;42.648;23.274;2024-03-17T13:07:51;3.47;;;2.38;;
84709;SDS011;75589;42.648;23.274;2024-03-17T13:11:16;4.18;;;3.15;;
84709;SDS011;75589;42.648;23.274;2024-03-17T13:14:42;2.92;;;2.65;;
84709;SDS011;75589;42.648;23.274;2024-03-17T13:18:07;5.38;;;3.28;;
84709;SDS011;75589;42.648;23.274;2024-03-17T13:21:32;4.75;;;2.97;;
84709;SDS011;75589;42.648;23.274;2024-03-17T13:24:57;4.97;;;3.10;;
84709;SDS011;75589;42.648;23.274;2024-03-17T13:28:21;5.43;;;2.45;;
84709;SDS011;75589;42.648;23.274;2024-03-17T13:31:45;1.95;;;1.83;;
84709;SDS011;75589;42.648;23.274;2024-03-17T13:35:16;6.72;;;2.58;;
84709;SDS011;75589;42.648;23.274;2024-03-17T13:38:41;5.38;;;4.80;;
84709;SDS011;75589;42.648;23.274;2024-03-17T13:42:05;6.70;;;4.22;;
84709;SDS011;75589;42.648;23.274;2024-03-17T13:45:31;4.82;;;3.00;;
84709;SDS011;75589;42.648;23.274;2024-03-17T13:48:59;6.40;;;4.13;;
84709;SDS011;75589;42.648;23.274;2024-03-17T13:52:35;5.50;;;3.50;;
84709;SDS011;75589;42.648;23.274;2024-03-17T13:55:59;4.53;;;3.30;;
84709;SDS011;75589;42.648;23.274;2024-03-17T13:59:26;3.60;;;2.42;;
84709;SDS011;75589;42.648;23.274;2024-03-17T14:02:54;5.55;;;4.20;;
84709;SDS011;75589;42.648;23.274;2024-03-17T14:06:19;4.82;;;3.95;;
84709;SDS011;75589;42.648;23.274;2024-03-17T14:09:43;6.07;;;3.42;;
84709;SDS011;75589;42.648;23.274;2024-03-17T14:13:08;6.57;;;3.83;;
84709;SDS011;75589;42.648;23.274;2024-03-17T14:16:33;4.45;;;3.08;;
84709;SDS011;75589;42.648;23.274;2024-03-17T14:19:57;6.68;;;4.05;;
84709;SDS011;75589;42.648;23.274;2024-03-17T14:23:21;33.78;;;5.60;;
84709;SDS011;75589;42.648;23.274;2024-03-17T14:26:51;4.70;;;3.28;;
84709;SDS011;75589;42.648;23.274;2024-03-17T14:30:16;6.32;;;3.90;;
84709;SDS011;75589;42.648;23.274;2024-03-17T14:37:06;4.68;;;2.95;;
84709;SDS011;75589;42.648;23.274;2024-03-17T14:40:30;6.00;;;3.58;;
84709;SDS011;75589;42.648;23.274;2024-03-17T14:43:55;4.45;;;2.90;;
84709;SDS011;75589;42.648;23.274;2024-03-17T14:47:20;6.20;;;3.60;;
84709;SDS011;75589;42.648;23.274;2024-03-17T14:50:44;5.20;;;3.28;;
84709;SDS011;75589;42.648;23.274;2024-03-17T14:54:08;3.78;;;2.28;;
84709;SDS011;75589;42.648;23.274;2024-03-17T14:57:36;3.78;;;2.47;;
84709;SDS011;75589;42.648;23.274;2024-03-17T15:01:00;4.00;;;2.33;;
84709;SDS011;75589;42.648;23.274;2024-03-17T15:04:24;5.43;;;4.00;;
84709;SDS011;75589;42.648;23.274;2024-03-17T15:07:50;2.13;;;2.00;;
84709;SDS011;75589;42.648;23.274;2024-03-17T15:11:14;2.75;;;2.08;;
84709;SDS011;75589;42.648;23.274;2024-03-17T15:14:38;3.78;;;2.42;;
84709;SDS011;75589;42.648;23.274;2024-03-17T15:18:02;3.83;;;2.90;;
84709;SDS011;75589;42.648;23.274;2024-03-17T15:21:28;4.82;;;3.45;;
84709;SDS011;75589;42.648;23.274;2024-03-17T15:24:52;6.18;;;3.35;;
84709;SDS011;75589;42.648;23.274;2024-03-17T15:28:16;5.50;;;2.60;;
84709;SDS011;75589;42.648;23.274;2024-03-17T15:31:41;5.57;;;3.47;;
84709;SDS011;75589;42.648;23.274;2024-03-17T15:35:05;7.72;;;2.97;;
84709;SDS011;75589;42.648;23.274;2024-03-17T15:38:36;5.88;;;4.15;;
84709;SDS011;75589;42.648;23.274;2024-03-17T15:42:01;4.63;;;3.13;;
84709;SDS011;75589;42.648;23.274;2024-03-17T15:45:25;4.00;;;2.05;;
84709;SDS011;75589;42.648;23.274;2024-03-17T15:48:49;6.35;;;4.22;;
84709;SDS011;75589;42.648;23.274;2024-03-17T15:52:13;7.57;;;4.20;;
84709;SDS011;75589;42.648;23.274;2024-03-17T15:55:37;9.10;;;4.15;;
84709;SDS011;75589;42.648;23.274;2024-03-17T15:59:01;9.85;;;4.65;;
84709;SDS011;75589;42.648;23.274;2024-03-17T16:02:25;5.85;;;4.43;;
84709;SDS011;75589;42.648;23.274;2024-03-17T16:05:54;7.53;;;3.95;;
84709;SDS011;75589;42.648;23.274;2024-03-17T16:09:22;7.57;;;3.58;;
84709;SDS011;75589;42.648;23.274;2024-03-17T16:12:47;7.45;;;4.00;;
84709;SDS011;75589;42.648;23.274;2024-03-17T16:16:15;7.28;;;4.20;;
84709;SDS011;75589;42.648;23.274;2024-03-17T16:19:42;5.60;;;4.22;;
84709;SDS011;75589;42.648;23.274;2024-03-17T16:23:21;8.07;;;4.47;;
84709;SDS011;75589;42.648;23.274;2024-03-17T16:26:45;6.50;;;4.00;;
84709;SDS011;75589;42.648;23.274;2024-03-17T16:30:10;11.02;;;5.63;;
84709;SDS011;75589;42.648;23.274;2024-03-17T16:33:34;9.27;;;5.40;;
84709;SDS011;75589;42.648;23.274;2024-03-17T16:36:58;6.85;;;4.80;;
84709;SDS011;75589;42.648;23.274;2024-03-17T16:40:22;8.80;;;5.57;;
84709;SDS011;75589;42.648;23.274;2024-03-17T16:47:30;8.75;;;5.68;;
84709;SDS011;75589;42.648;23.274;2024-03-17T16:50:54;12.50;;;7.22;;
84709;SDS011;75589;42.648;23.274;2024-03-17T16:54:19;9.35;;;5.93;;
84709;SDS011;75589;42.648;23.274;2024-03-17T16:57:43;9.27;;;5.63;;
84709;SDS011;75589;42.648;23.274;2024-03-17T17:01:09;8.85;;;6.43;;
84709;SDS011;75589;42.648;23.274;2024-03-17T17:04:39;10.80;;;5.47;;
84709;SDS011;75589;42.648;23.274;2024-03-17T17:08:03;11.50;;;6.05;;
84709;SDS011;75589;42.648;23.274;2024-03-17T17:11:29;9.65;;;5.30;;
84709;SDS011;75589;42.648;23.274;2024-03-17T17:14:53;10.13;;;5.35;;
84709;SDS011;75589;42.648;23.274;2024-03-17T17:22:02;5.25;;;4.07;;
84709;SDS011;75589;42.648;23.274;2024-03-17T17:25:26;11.88;;;5.57;;
84709;SDS011;75589;42.648;23.274;2024-03-17T17:29:01;4.25;;;3.28;;
84709;SDS011;75589;42.648;23.274;2024-03-17T17:32:25;5.25;;;3.63;;
84709;SDS011;75589;42.648;23.274;2024-03-17T17:35:49;7.35;;;5.03;;
84709;SDS011;75589;42.648;23.274;2024-03-17T17:39:15;11.30;;;5.32;;
84709;SDS011;75589;42.648;23.274;2024-03-17T17:42:39;10.48;;;6.55;;
84709;SDS011;75589;42.648;23.274;2024-03-17T17:46:07;29.58;;;11.32;;
84709;SDS011;75589;42.648;23.274;2024-03-17T17:49:31;19.40;;;8.90;;
84709;SDS011;75589;42.648;23.274;2024-03-17T17:52:55;13.90;;;7.20;;
84709;SDS011;75589;42.648;23.274;2024-03-17T17:56:19;12.60;;;6.30;;
84709;SDS011;75589;42.648;23.274;2024-03-17T17:59:43;12.35;;;5.68;;
84709;SDS011;75589;42.648;23.274;2024-03-17T18:03:07;8.55;;;5.38;;
84709;SDS011;75589;42.648;23.274;2024-03-17T18:06:32;9.27;;;4.00;;
84709;SDS011;75589;42.648;23.274;2024-03-17T18:09:56;7.63;;;4.78;;
84709;SDS011;75589;42.648;23.274;2024-03-17T18:13:21;7.85;;;5.15;;
84709;SDS011;75589;42.648;23.274;2024-03-17T18:16:49;8.80;;;4.72;;
84709;SDS011;75589;42.648;23.274;2024-03-17T18:20:13;10.32;;;6.28;;
84709;SDS011;75589;42.648;23.274;2024-03-17T18:23:38;5.70;;;4.43;;
84709;SDS011;75589;42.648;23.274;2024-03-17T18:27:02;9.80;;;4.45;;
84709;SDS011;75589;42.648;23.274;2024-03-17T18:30:27;8.38;;;6.07;;
84709;SDS011;75589;42.648;23.274;2024-03-17T18:33:51;12.68;;;5.80;;
84709;SDS011;75589;42.648;23.274;2024-03-17T18:37:15;14.70;;;7.65;;
84709;SDS011;75589;42.648;23.274;2024-03-17T18:40:40;8.38;;;5.05;;
84709;SDS011;75589;42.648;23.274;2024-03-17T18:44:04;9.63;;;5.38;;
84709;SDS011;75589;42.648;23.274;2024-03-17T18:47:29;7.25;;;5.85;;
84709;SDS011;75589;42.648;23.274;2024-03-17T18:50:56;8.38;;;4.13;;
84709;SDS011;75589;42.648;23.274;2024-03-17T18:54:20;10.23;;;6.20;;
84709;SDS011;75589;42.648;23.274;2024-03-17T18:57:44;23.65;;;10.13;;
84709;SDS011;75589;42.648;23.274;2024-03-17T19:01:09;12.80;;;7.68;;
84709;SDS011;75589;42.648;23.274;2024-03-17T19:04:35;12.40;;;6.07;;
84709;SDS011;75589;42.648;23.274;2024-03-17T19:07:59;5.78;;;4.53;;
84709;SDS011;75589;42.648;23.274;2024-03-17T19:11:23;10.65;;;6.20;;
84709;SDS011;75589;42.648;23.274;2024-03-17T19:14:50;14.30;;;6.43;;
84709;SDS011;75589;42.648;23.274;2024-03-17T19:18:27;8.10;;;4.97;;
84709;SDS011;75589;42.648;23.274;2024-03-17T19:21:51;6.45;;;4.68;;
84709;SDS011;75589;42.648;23.274;2024-03-17T19:25:16;13.77;;;6.43;;
84709;SDS011;75589;42.648;23.274;2024-03-17T19:28:48;5.30;;;4.22;;
84709;SDS011;75589;42.648;23.274;2024-03-17T19:32:12;11.07;;;5.65;;
84709;SDS011;75589;42.648;23.274;2024-03-17T19:35:36;13.25;;;6.53;;
84709;SDS011;75589;42.648;23.274;2024-03-17T19:39:01;9.27;;;6.43;;
84709;SDS011;75589;42.648;23.274;2024-03-17T19:42:25;8.20;;;5.70;;
84709;SDS011;75589;42.648;23.274;2024-03-17T19:45:56;13.35;;;6.47;;
84709;SDS011;75589;42.648;23.274;2024-03-17T19:49:20;7.82;;;4.90;;
84709;SDS011;75589;42.648;23.274;2024-03-17T19:52:45;7.80;;;5.35;;
84709;SDS011;75589;42.648;23.274;2024-03-17T19:56:10;7.50;;;4.88;;
84709;SDS011;75589;42.648;23.274;2024-03-17T19:59:34;7.00;;;4.45;;
84709;SDS011;75589;42.648;23.274;2024-03-17T20:02:58;10.15;;;5.47;;
84709;SDS011;75589;42.648;23.274;2024-03-17T20:06:23;7.28;;;4.95;;
84709;SDS011;75589;42.648;23.274;2024-03-17T20:09:47;5.70;;;3.45;;
84709;SDS011;75589;42.648;23.274;2024-03-17T20:13:12;4.63;;;3.03;;
84709;SDS011;75589;42.648;23.274;2024-03-17T20:16:36;3.20;;;2.65;;
84709;SDS011;75589;42.648;23.274;2024-03-17T20:20:02;4.28;;;3.45;;
84709;SDS011;75589;42.648;23.274;2024-03-17T20:23:26;3.08;;;2.25;;
84709;SDS011;75589;42.648;23.274;2024-03-17T20:26:50;3.33;;;2.67;;
84709;SDS011;75589;42.648;23.274;2024-03-17T20:30:14;3.63;;;3.10;;
84709;SDS011;75589;42.648;23.274;2024-03-17T20:33:40;4.00;;;2.80;;
84709;SDS011;75589;42.648;23.274;2024-03-17T20:37:04;2.17;;;1.67;;
84709;SDS011;75589;42.648;23.274;2024-03-17T20:40:29;3.42;;;3.13;;